sensor_id;sensor_type;location;lat;lon;timestamp;pressure;altitude;pressure_sealevel;temperature;humidity
11038;BME280;5572;49.540;11.932;2023-02-03T05:04:48;97336.50;;;4.79;100.00
11038;BME280;5572;49.540;11.932;2023-02-03T05:29:18;97318.13;;;4.71;100.00
11038;BME280;5572;49.540;11.932;2023-02-03T13:25:50;95753.66;;;5.93;100.00
11038;BME280;5572;49.540;11.932;2023-02-03T13:28:47;95760.59;;;5.94;100.00
11038;BME280;5572;49.540;11.932;2023-02-03T13:31:27;95761.69;;;5.93;100.00
11038;BME280;5572;49.540;11.932;2023-02-03T13:34:25;95776.50;;;5.86;100.00
11038;BME280;5572;49.540;11.932;2023-02-03T13:37:18;95789.84;;;5.91;100.00
11038;BME280;5572;49.540;11.932;2023-02-03T13:40:16;95778.88;;;5.87;100.00
11038;BME280;5572;49.540;11.932;2023-02-03T13:43:03;95805.16;;;5.90;100.00
11038;BME280;5572;49.540;11.932;2023-02-03T13:45:49;95828.75;;;5.88;100.00
11038;BME280;5572;49.540;11.932;2023-02-03T13:48:20;95858.81;;;5.85;100.00
11038;BME280;5572;49.540;11.932;2023-02-03T13:50:48;95872.22;;;5.85;100.00
11038;BME280;5572;49.540;11.932;2023-02-03T13:53:39;95896.88;;;5.87;100.00
11038;BME280;5572;49.540;11.932;2023-02-03T13:56:14;95951.53;;;5.96;100.00
11038;BME280;5572;49.540;11.932;2023-02-03T13:58:58;95974.41;;;5.89;100.00
11038;BME280;5572;49.540;11.932;2023-02-03T14:01:42;96020.78;;;5.84;100.00
11038;BME280;5572;49.540;11.932;2023-02-03T14:04:50;96044.13;;;5.89;100.00
11038;BME280;5572;49.540;11.932;2023-02-03T14:07:27;96043.00;;;5.90;100.00
11038;BME280;5572;49.540;11.932;2023-02-03T14:10:19;96077.38;;;5.83;100.00
11038;BME280;5572;49.540;11.932;2023-02-03T14:12:57;96107.66;;;6.03;100.00
11038;BME280;5572;49.540;11.932;2023-02-03T14:15:31;96118.63;;;6.06;100.00
11038;BME280;5572;49.540;11.932;2023-02-03T14:18:30;96131.25;;;6.01;100.00
11038;BME280;5572;49.540;11.932;2023-02-03T14:21:18;96131.50;;;6.04;100.00
11038;BME280;5572;49.540;11.932;2023-02-03T14:23:53;96175.19;;;6.15;100.00
11038;BME280;5572;49.540;11.932;2023-02-03T14:26:38;96174.94;;;6.11;100.00
11038;BME280;5572;49.540;11.932;2023-02-03T14:29:07;96173.09;;;6.12;100.00
11038;BME280;5572;49.540;11.932;2023-02-03T14:31:54;96184.34;;;6.09;100.00
11038;BME280;5572;49.540;11.932;2023-02-03T14:34:39;96188.34;;;6.11;100.00
11038;BME280;5572;49.540;11.932;2023-02-03T14:37:16;96200.44;;;6.04;100.00
11038;BME280;5572;49.540;11.932;2023-02-03T14:40:05;96220.28;;;6.18;100.00
11038;BME280;5572;49.540;11.932;2023-02-03T14:42:56;96208.75;;;6.12;100.00
11038;BME280;5572;49.540;11.932;2023-02-03T14:48:35;96248.19;;;6.17;100.00
11038;BME280;5572;49.540;11.932;2023-02-03T14:51:12;96265.38;;;6.21;100.00
11038;BME280;5572;49.540;11.932;2023-02-03T14:54:01;96258.91;;;6.17;100.00
11038;BME280;5572;49.540;11.932;2023-02-03T14:56:45;96272.63;;;6.15;100.00
11038;BME280;5572;49.540;11.932;2023-02-03T14:59:37;96317.16;;;6.26;100.00
11038;BME280;5572;49.540;11.932;2023-02-03T15:02:13;96305.88;;;6.19;100.00
11038;BME280;5572;49.540;11.932;2023-02-03T15:04:46;96313.66;;;6.11;100.00
11038;BME280;5572;49.540;11.932;2023-02-03T15:07:38;96340.22;;;6.12;100.00
11038;BME280;5572;49.540;11.932;2023-02-03T15:10:16;96345.06;;;6.15;100.00
11038;BME280;5572;49.540;11.932;2023-02-03T15:12:45;96357.66;;;6.10;100.00
11038;BME280;5572;49.540;11.932;2023-02-03T15:15:24;96373.75;;;6.10;100.00
11038;BME280;5572;49.540;11.932;2023-02-03T15:17:51;96394.16;;;6.16;100.00
11038;BME280;5572;49.540;11.932;2023-02-03T15:20:34;96397.91;;;6.15;100.00
11038;BME280;5572;49.540;11.932;2023-02-03T15:23:17;96401.13;;;6.12;100.00
11038;BME280;5572;49.540;11.932;2023-02-03T15:25:44;96415.38;;;6.17;100.00
11038;BME280;5572;49.540;11.932;2023-02-03T15:28:13;96426.38;;;6.21;100.00
11038;BME280;5572;49.540;11.932;2023-02-03T15:30:45;96419.94;;;6.22;100.00
11038;BME280;5572;49.540;11.932;2023-02-03T15:33:14;96404.34;;;6.14;100.00
11038;BME280;5572;49.540;11.932;2023-02-03T15:35:45;96412.41;;;6.19;100.00
11038;BME280;5572;49.540;11.932;2023-02-03T15:38:18;96375.66;;;6.24;100.00
11038;BME280;5572;49.540;11.932;2023-02-03T15:40:47;96394.72;;;6.28;100.00
11038;BME280;5572;49.540;11.932;2023-02-03T15:43:18;96386.38;;;6.19;100.00
11038;BME280;5572;49.540;11.932;2023-02-03T15:45:57;96387.75;;;6.22;100.00
11038;BME280;5572;49.540;11.932;2023-02-03T15:48:31;96385.03;;;6.27;100.00
11038;BME280;5572;49.540;11.932;2023-02-03T15:51:07;96379.41;;;6.18;100.00
11038;BME280;5572;49.540;11.932;2023-02-03T15:53:47;96406.53;;;6.22;100.00
11038;BME280;5572;49.540;11.932;2023-02-03T15:56:20;96397.09;;;6.19;100.00
11038;BME280;5572;49.540;11.932;2023-02-03T15:58:51;96409.44;;;6.20;100.00
11038;BME280;5572;49.540;11.932;2023-02-03T16:01:21;96426.38;;;6.21;100.00
11038;BME280;5572;49.540;11.932;2023-02-03T16:03:51;96421.81;;;6.21;100.00
11038;BME280;5572;49.540;11.932;2023-02-03T16:06:23;96450.53;;;6.26;100.00
11038;BME280;5572;49.540;11.932;2023-02-03T16:08:52;96466.34;;;6.22;100.00
11038;BME280;5572;49.540;11.932;2023-02-03T16:11:21;96465.31;;;6.28;100.00
11038;BME280;5572;49.540;11.932;2023-02-03T16:13:48;96465.03;;;6.30;100.00
11038;BME280;5572;49.540;11.932;2023-02-03T16:16:17;96489.16;;;6.25;100.00
11038;BME280;5572;49.540;11.932;2023-02-03T16:18:50;96495.13;;;6.42;100.00
11038;BME280;5572;49.540;11.932;2023-02-03T16:21:34;96504.50;;;6.39;100.00
11038;BME280;5572;49.540;11.932;2023-02-03T16:24:02;96499.41;;;6.38;100.00
11038;BME280;5572;49.540;11.932;2023-02-03T16:26:30;96525.72;;;6.41;100.00
11038;BME280;5572;49.540;11.932;2023-02-03T16:29:18;96517.16;;;6.44;100.00
11038;BME280;5572;49.540;11.932;2023-02-03T16:32:16;96526.81;;;6.40;100.00
11038;BME280;5572;49.540;11.932;2023-02-03T16:35:01;96530.81;;;6.42;100.00
11038;BME280;5572;49.540;11.932;2023-02-03T16:37:46;96527.91;;;6.44;100.00
11038;BME280;5572;49.540;11.932;2023-02-03T16:40:30;96526.28;;;6.48;100.00
11038;BME280;5572;49.540;11.932;2023-02-03T16:43:15;96532.75;;;6.52;100.00
11038;BME280;5572;49.540;11.932;2023-02-03T16:46:00;96555.03;;;6.52;100.00
11038;BME280;5572;49.540;11.932;2023-02-03T16:48:44;96545.91;;;6.48;100.00
11038;BME280;5572;49.540;11.932;2023-02-03T16:51:35;96559.56;;;6.47;100.00
11038;BME280;5572;49.540;11.932;2023-02-03T16:54:04;96571.41;;;6.51;100.00
11038;BME280;5572;49.540;11.932;2023-02-03T16:56:31;96580.25;;;6.46;100.00
11038;BME280;5572;49.540;11.932;2023-02-03T16:58:58;96585.03;;;6.39;100.00
11038;BME280;5572;49.540;11.932;2023-02-03T17:01:24;96583.44;;;6.38;100.00
11038;BME280;5572;49.540;11.932;2023-02-03T17:03:51;96593.41;;;6.43;100.00
11038;BME280;5572;49.540;11.932;2023-02-03T17:06:17;96608.44;;;6.44;100.00
11038;BME280;5572;49.540;11.932;2023-02-03T17:08:44;96594.47;;;6.42;100.00
11038;BME280;5572;49.540;11.932;2023-02-03T17:11:15;96595.25;;;6.42;100.00
11038;BME280;5572;49.540;11.932;2023-02-03T17:13:43;96597.66;;;6.39;100.00
11038;BME280;5572;49.540;11.932;2023-02-03T17:16:11;96615.91;;;6.37;100.00
11038;BME280;5572;49.540;11.932;2023-02-03T17:18:38;96591.50;;;6.43;100.00
11038;BME280;5572;49.540;11.932;2023-02-03T17:21:07;96611.13;;;6.44;100.00
11038;BME280;5572;49.540;11.932;2023-02-03T17:23:34;96612.44;;;6.41;100.00
11038;BME280;5572;49.540;11.932;2023-02-03T17:26:01;96616.19;;;6.40;100.00
11038;BME280;5572;49.540;11.932;2023-02-03T17:28:30;96626.69;;;6.42;100.00
11038;BME280;5572;49.540;11.932;2023-02-03T17:30:57;96638.72;;;6.39;100.00
11038;BME280;5572;49.540;11.932;2023-02-03T17:33:25;96634.72;;;6.42;100.00
11038;BME280;5572;49.540;11.932;2023-02-03T17:36:00;96647.91;;;6.48;100.00
11038;BME280;5572;49.540;11.932;2023-02-03T17:38:27;96652.19;;;6.49;100.00
11038;BME280;5572;49.540;11.932;2023-02-03T17:40:53;96679.03;;;6.49;100.00
11038;BME280;5572;49.540;11.932;2023-02-03T17:43:20;96672.88;;;6.44;100.00
11038;BME280;5572;49.540;11.932;2023-02-03T17:45:48;96702.91;;;6.46;100.00
11038;BME280;5572;49.540;11.932;2023-02-03T17:48:14;96701.06;;;6.51;100.00
11038;BME280;5572;49.540;11.932;2023-02-03T17:50:41;96729.03;;;6.55;100.00
11038;BME280;5572;49.540;11.932;2023-02-03T17:53:08;96740.28;;;6.52;100.00
11038;BME280;5572;49.540;11.932;2023-02-03T17:55:37;96744.63;;;6.58;100.00
11038;BME280;5572;49.540;11.932;2023-02-03T17:58:03;96730.38;;;6.53;100.00
11038;BME280;5572;49.540;11.932;2023-02-03T18:00:30;96743.25;;;6.56;100.00
11038;BME280;5572;49.540;11.932;2023-02-03T18:02:58;96747.56;;;6.57;100.00
11038;BME280;5572;49.540;11.932;2023-02-03T18:05:25;96764.50;;;6.62;100.00
11038;BME280;5572;49.540;11.932;2023-02-03T18:07:53;96761.03;;;6.67;100.00
11038;BME280;5572;49.540;11.932;2023-02-03T18:10:31;96758.31;;;6.57;100.00
11038;BME280;5572;49.540;11.932;2023-02-03T18:12:59;96773.41;;;6.68;100.00
11038;BME280;5572;49.540;11.932;2023-02-03T18:15:26;96789.53;;;6.68;100.00
11038;BME280;5572;49.540;11.932;2023-02-03T18:17:53;96813.75;;;6.73;100.00
11038;BME280;5572;49.540;11.932;2023-02-03T18:20:21;96820.75;;;6.74;100.00
11038;BME280;5572;49.540;11.932;2023-02-03T18:22:48;96811.31;;;6.71;100.00
11038;BME280;5572;49.540;11.932;2023-02-03T18:25:15;96818.28;;;6.67;100.00
11038;BME280;5572;49.540;11.932;2023-02-03T18:27:42;96840.81;;;6.66;100.00
11038;BME280;5572;49.540;11.932;2023-02-03T18:30:10;96844.72;;;6.85;100.00
11038;BME280;5572;49.540;11.932;2023-02-03T18:32:49;96853.56;;;6.85;100.00
11038;BME280;5572;49.540;11.932;2023-02-03T18:35:16;96845.44;;;6.76;100.00
11038;BME280;5572;49.540;11.932;2023-02-03T18:37:47;96842.44;;;6.67;100.00
11038;BME280;5572;49.540;11.932;2023-02-03T18:40:13;96863.38;;;6.65;100.00
11038;BME280;5572;49.540;11.932;2023-02-03T18:42:40;96859.44;;;6.78;100.00
11038;BME280;5572;49.540;11.932;2023-02-03T18:45:08;96864.03;;;6.82;100.00
11038;BME280;5572;49.540;11.932;2023-02-03T18:47:35;96839.75;;;6.67;100.00
11038;BME280;5572;49.540;11.932;2023-02-03T18:50:04;96850.44;;;6.62;100.00
11038;BME280;5572;49.540;11.932;2023-02-03T18:52:36;96847.47;;;6.59;100.00
11038;BME280;5572;49.540;11.932;2023-02-03T18:55:07;96850.94;;;6.59;100.00
11038;BME280;5572;49.540;11.932;2023-02-03T18:57:35;96838.84;;;6.52;100.00
11038;BME280;5572;49.540;11.932;2023-02-03T19:00:05;96823.22;;;6.49;100.00
11038;BME280;5572;49.540;11.932;2023-02-03T19:02:32;96810.84;;;6.43;100.00
11038;BME280;5572;49.540;11.932;2023-02-03T19:04:59;96797.94;;;6.40;100.00
11038;BME280;5572;49.540;11.932;2023-02-03T19:07:26;96784.72;;;6.33;100.00
11038;BME280;5572;49.540;11.932;2023-02-03T19:09:53;96777.94;;;6.26;100.00
11038;BME280;5572;49.540;11.932;2023-02-03T19:12:21;96786.56;;;6.28;100.00
11038;BME280;5572;49.540;11.932;2023-02-03T19:14:49;96792.75;;;6.28;100.00
11038;BME280;5572;49.540;11.932;2023-02-03T19:17:16;96782.53;;;6.30;100.00
11038;BME280;5572;49.540;11.932;2023-02-03T19:19:43;96784.38;;;6.25;100.00
11038;BME280;5572;49.540;11.932;2023-02-03T19:22:10;96773.41;;;6.26;100.00
11038;BME280;5572;49.540;11.932;2023-02-03T19:24:37;96770.38;;;6.18;100.00
11038;BME280;5572;49.540;11.932;2023-02-03T19:27:04;96752.88;;;6.10;100.00
11038;BME280;5572;49.540;11.932;2023-02-03T19:29:32;96736.75;;;6.10;100.00
11038;BME280;5572;49.540;11.932;2023-02-03T19:31:59;96703.66;;;5.95;100.00
11038;BME280;5572;49.540;11.932;2023-02-03T19:34:28;96722.56;;;6.10;100.00
11038;BME280;5572;49.540;11.932;2023-02-03T19:36:55;96726.25;;;6.04;100.00
11038;BME280;5572;49.540;11.932;2023-02-03T19:39:24;96738.25;;;6.28;100.00
11038;BME280;5572;49.540;11.932;2023-02-03T19:41:50;96705.88;;;6.03;100.00
11038;BME280;5572;49.540;11.932;2023-02-03T19:44:17;96696.81;;;6.14;100.00
11038;BME280;5572;49.540;11.932;2023-02-03T19:46:46;96677.50;;;6.12;100.00
11038;BME280;5572;49.540;11.932;2023-02-03T19:49:12;96665.06;;;6.01;100.00
11038;BME280;5572;49.540;11.932;2023-02-03T19:51:41;96649.25;;;6.04;100.00
11038;BME280;5572;49.540;11.932;2023-02-03T19:54:10;96616.56;;;6.07;100.00
11038;BME280;5572;49.540;11.932;2023-02-03T19:56:37;96596.94;;;6.02;100.00
11038;BME280;5572;49.540;11.932;2023-02-03T19:59:04;96572.81;;;6.07;100.00
11038;BME280;5572;49.540;11.932;2023-02-03T20:01:30;96557.47;;;5.97;100.00
11038;BME280;5572;49.540;11.932;2023-02-03T20:03:59;96530.59;;;5.88;100.00
11038;BME280;5572;49.540;11.932;2023-02-03T20:06:27;96487.75;;;5.97;100.00
11038;BME280;5572;49.540;11.932;2023-02-03T20:08:54;96473.22;;;5.94;100.00
11038;BME280;5572;49.540;11.932;2023-02-03T20:11:21;96457.09;;;5.84;100.00
11038;BME280;5572;49.540;11.932;2023-02-03T20:13:48;96421.69;;;5.82;100.00
11038;BME280;5572;49.540;11.932;2023-02-03T20:16:15;96393.22;;;5.76;100.00
11038;BME280;5572;49.540;11.932;2023-02-03T20:18:42;96371.22;;;5.74;100.00
11038;BME280;5572;49.540;11.932;2023-02-03T20:21:12;96340.38;;;5.76;100.00
11038;BME280;5572;49.540;11.932;2023-02-03T20:23:51;96318.94;;;5.71;100.00
11038;BME280;5572;49.540;11.932;2023-02-03T20:26:18;96281.38;;;5.66;100.00
11038;BME280;5572;49.540;11.932;2023-02-03T20:28:45;96242.75;;;5.57;100.00
11038;BME280;5572;49.540;11.932;2023-02-03T20:31:12;96233.63;;;5.48;100.00
11038;BME280;5572;49.540;11.932;2023-02-03T20:33:40;96205.50;;;5.46;100.00
11038;BME280;5572;49.540;11.932;2023-02-03T20:36:07;96191.03;;;5.47;100.00
11038;BME280;5572;49.540;11.932;2023-02-03T20:38:36;96174.66;;;5.48;100.00
11038;BME280;5572;49.540;11.932;2023-02-03T20:41:04;96161.25;;;5.48;100.00
11038;BME280;5572;49.540;11.932;2023-02-03T20:43:31;96150.00;;;5.36;100.00
11038;BME280;5572;49.540;11.932;2023-02-03T20:46:04;96135.78;;;5.51;100.00
11038;BME280;5572;49.540;11.932;2023-02-03T20:48:34;96119.19;;;5.44;100.00
11038;BME280;5572;49.540;11.932;2023-02-03T20:51:02;96119.72;;;5.66;100.00
11038;BME280;5572;49.540;11.932;2023-02-03T20:53:31;96099.63;;;5.53;100.00
11038;BME280;5572;49.540;11.932;2023-02-03T20:55:59;96104.69;;;5.60;100.00
11038;BME280;5572;49.540;11.932;2023-02-03T20:58:27;96086.50;;;5.57;100.00
11038;BME280;5572;49.540;11.932;2023-02-03T21:00:55;96078.16;;;5.73;100.00
11038;BME280;5572;49.540;11.932;2023-02-03T21:03:23;96089.97;;;5.62;100.00
11038;BME280;5572;49.540;11.932;2023-02-03T21:06:11;96092.13;;;5.50;100.00
11038;BME280;5572;49.540;11.932;2023-02-03T21:08:39;96117.03;;;5.61;100.00
11038;BME280;5572;49.540;11.932;2023-02-03T21:11:10;96118.38;;;5.68;100.00
11038;BME280;5572;49.540;11.932;2023-02-03T21:13:38;96141.44;;;5.59;100.00
11038;BME280;5572;49.540;11.932;2023-02-03T21:16:13;96157.00;;;5.62;100.00
11038;BME280;5572;49.540;11.932;2023-02-03T21:18:44;96182.44;;;5.50;100.00
11038;BME280;5572;49.540;11.932;2023-02-03T21:21:14;96169.84;;;5.55;100.00
11038;BME280;5572;49.540;11.932;2023-02-03T21:23:43;96183.78;;;5.42;100.00
11038;BME280;5572;49.540;11.932;2023-02-03T21:26:18;96169.06;;;5.65;100.00
11038;BME280;5572;49.540;11.932;2023-02-03T21:29:02;96187.56;;;5.61;100.00
11038;BME280;5572;49.540;11.932;2023-02-03T21:31:30;96186.50;;;5.77;100.00
11038;BME280;5572;49.540;11.932;2023-02-03T21:34:00;96208.47;;;5.84;100.00
11038;BME280;5572;49.540;11.932;2023-02-03T21:36:31;96234.25;;;5.80;100.00
11038;BME280;5572;49.540;11.932;2023-02-03T21:39:19;96258.66;;;5.84;100.00
11038;BME280;5572;49.540;11.932;2023-02-03T21:41:51;96286.81;;;5.86;100.00
11038;BME280;5572;49.540;11.932;2023-02-03T21:44:26;96290.28;;;5.92;100.00
11038;BME280;5572;49.540;11.932;2023-02-03T21:46:54;96304.72;;;5.76;100.00
11038;BME280;5572;49.540;11.932;2023-02-03T21:49:21;96317.38;;;5.85;100.00
11038;BME280;5572;49.540;11.932;2023-02-03T21:52:02;96332.34;;;5.71;100.00
11038;BME280;5572;49.540;11.932;2023-02-03T21:54:31;96334.53;;;5.79;100.00
11038;BME280;5572;49.540;11.932;2023-02-03T21:57:12;96349.72;;;5.64;100.00
11038;BME280;5572;49.540;11.932;2023-02-03T21:59:39;96374.19;;;5.77;100.00
11038;BME280;5572;49.540;11.932;2023-02-03T22:02:26;96386.81;;;5.77;100.00
11038;BME280;5572;49.540;11.932;2023-02-03T22:05:22;96445.56;;;5.88;100.00
11038;BME280;5572;49.540;11.932;2023-02-03T22:07:49;96443.97;;;5.82;100.00
11038;BME280;5572;49.540;11.932;2023-02-03T22:10:16;96479.81;;;5.71;100.00
11038;BME280;5572;49.540;11.932;2023-02-03T22:12:44;96464.50;;;5.72;100.00
11038;BME280;5572;49.540;11.932;2023-02-03T22:15:11;96457.56;;;5.76;100.00
11038;BME280;5572;49.540;11.932;2023-02-03T22:17:37;96451.38;;;5.75;100.00
11038;BME280;5572;49.540;11.932;2023-02-03T22:20:05;96459.13;;;5.67;100.00
11038;BME280;5572;49.540;11.932;2023-02-03T22:22:32;96456.75;;;5.70;100.00
11038;BME280;5572;49.540;11.932;2023-02-03T22:24:59;96466.91;;;5.63;100.00
11038;BME280;5572;49.540;11.932;2023-02-03T22:27:26;96466.34;;;5.66;100.00
11038;BME280;5572;49.540;11.932;2023-02-03T22:29:54;96477.38;;;5.70;100.00
11038;BME280;5572;49.540;11.932;2023-02-03T22:32:21;96469.28;;;5.60;100.00
11038;BME280;5572;49.540;11.932;2023-02-03T22:34:48;96483.28;;;5.67;100.00
11038;BME280;5572;49.540;11.932;2023-02-03T22:37:14;96482.44;;;5.66;100.00
11038;BME280;5572;49.540;11.932;2023-02-03T22:39:41;96501.75;;;5.63;100.00
11038;BME280;5572;49.540;11.932;2023-02-03T22:42:08;96517.00;;;5.63;100.00
11038;BME280;5572;49.540;11.932;2023-02-03T22:44:34;96498.81;;;5.70;100.00
11038;BME280;5572;49.540;11.932;2023-02-03T22:47:02;96533.38;;;5.66;100.00
11038;BME280;5572;49.540;11.932;2023-02-03T22:49:30;96569.84;;;5.67;100.00
11038;BME280;5572;49.540;11.932;2023-02-03T22:51:57;96601.25;;;5.67;100.00
11038;BME280;5572;49.540;11.932;2023-02-03T22:54:24;96620.16;;;5.55;100.00
11038;BME280;5572;49.540;11.932;2023-02-03T22:56:51;96621.91;;;5.71;100.00
11038;BME280;5572;49.540;11.932;2023-02-03T22:59:17;96627.78;;;5.68;100.00
11038;BME280;5572;49.540;11.932;2023-02-03T23:01:44;96621.28;;;5.59;100.00
11038;BME280;5572;49.540;11.932;2023-02-03T23:04:13;96617.56;;;5.65;100.00
11038;BME280;5572;49.540;11.932;2023-02-03T23:06:39;96640.84;;;5.60;100.00
11038;BME280;5572;49.540;11.932;2023-02-03T23:09:06;96639.25;;;5.59;100.00
11038;BME280;5572;49.540;11.932;2023-02-03T23:11:33;96633.28;;;5.52;100.00
11038;BME280;5572;49.540;11.932;2023-02-03T23:14:00;96628.53;;;5.59;100.00
11038;BME280;5572;49.540;11.932;2023-02-03T23:16:26;96649.66;;;5.55;100.00
11038;BME280;5572;49.540;11.932;2023-02-03T23:18:53;96654.16;;;5.50;100.00
11038;BME280;5572;49.540;11.932;2023-02-03T23:21:21;96667.03;;;5.48;100.00
11038;BME280;5572;49.540;11.932;2023-02-03T23:23:50;96629.31;;;5.59;100.00
11038;BME280;5572;49.540;11.932;2023-02-03T23:26:17;96650.44;;;5.51;100.00
11038;BME280;5572;49.540;11.932;2023-02-03T23:28:43;96655.56;;;5.52;100.00
11038;BME280;5572;49.540;11.932;2023-02-03T23:31:10;96675.94;;;5.53;100.00
11038;BME280;5572;49.540;11.932;2023-02-03T23:33:39;96676.38;;;5.45;100.00
11038;BME280;5572;49.540;11.932;2023-02-03T23:36:27;96678.81;;;5.47;100.00
11038;BME280;5572;49.540;11.932;2023-02-03T23:38:53;96690.03;;;5.44;100.00
11038;BME280;5572;49.540;11.932;2023-02-03T23:41:20;96623.91;;;5.54;100.00
11038;BME280;5572;49.540;11.932;2023-02-03T23:43:47;96649.53;;;5.40;100.00
11038;BME280;5572;49.540;11.932;2023-02-03T23:46:14;96687.84;;;5.41;100.00
11038;BME280;5572;49.540;11.932;2023-02-03T23:48:41;96701.06;;;5.47;100.00
11038;BME280;5572;49.540;11.932;2023-02-03T23:51:08;96719.81;;;5.47;100.00
11038;BME280;5572;49.540;11.932;2023-02-03T23:53:38;96738.25;;;5.39;100.00
11038;BME280;5572;49.540;11.932;2023-02-03T23:56:07;96772.53;;;5.37;100.00
11038;BME280;5572;49.540;11.932;2023-02-03T23:58:34;96781.81;;;5.29;100.00
